createdAt,value
2022-07-31T00:02:08.032Z,17.28
2022-07-31T00:04:34.802Z,17.59
2022-07-31T00:07:01.744Z,17.50
2022-07-31T00:09:52.416Z,17.52
2022-07-31T00:12:15.407Z,17.41
2022-07-31T00:14:42.026Z,17.36
2022-07-31T00:17:08.882Z,17.51
2022-07-31T00:19:35.569Z,17.48
2022-07-31T00:22:02.211Z,17.38
2022-07-31T00:24:28.892Z,17.62
2022-07-31T00:26:56.944Z,17.23
2022-07-31T00:29:23.581Z,17.34
2022-07-31T00:31:50.361Z,17.49
2022-07-31T00:34:17.008Z,17.72
2022-07-31T00:36:43.717Z,17.90
2022-07-31T00:39:10.547Z,18.11
2022-07-31T00:41:46.548Z,17.81
2022-07-31T00:44:13.933Z,17.64
2022-07-31T00:46:42.009Z,17.38
2022-07-31T00:49:10.372Z,17.39
2022-07-31T00:51:38.671Z,17.18
2022-07-31T00:54:06.640Z,17.12
2022-07-31T00:56:33.342Z,16.83
2022-07-31T00:59:00.141Z,17.03
2022-07-31T01:01:26.947Z,17.38
2022-07-31T01:03:54.049Z,17.23
2022-07-31T01:06:20.736Z,17.23
2022-07-31T01:08:47.441Z,17.42
2022-07-31T01:11:23.299Z,17.30
2022-07-31T01:13:58.505Z,17.10
2022-07-31T01:16:30.750Z,17.26
2022-07-31T01:18:59.230Z,17.43
2022-07-31T01:21:40.012Z,17.38
2022-07-31T01:24:34.310Z,17.28
2022-07-31T01:27:12.635Z,17.51
2022-07-31T01:29:45.523Z,17.15
2022-07-31T01:32:29.343Z,17.24
2022-07-31T01:35:06.637Z,17.26
2022-07-31T01:37:54.889Z,17.33
2022-07-31T01:40:27.915Z,17.01
2022-07-31T01:43:02.222Z,17.25
2022-07-31T01:45:30.916Z,17.32
2022-07-31T01:47:57.608Z,17.30
2022-07-31T01:50:42.848Z,17.07
2022-07-31T01:53:13.417Z,17.18
2022-07-31T01:56:02.538Z,17.17
2022-07-31T01:58:32.968Z,17.30
2022-07-31T02:01:02.851Z,17.08
2022-07-31T02:03:43.599Z,17.15
2022-07-31T02:06:17.198Z,17.33
2022-07-31T02:08:49.469Z,17.38
2022-07-31T02:11:18.865Z,17.23
2022-07-31T02:13:47.826Z,17.27
2022-07-31T02:16:16.662Z,17.39
2022-07-31T02:18:43.645Z,17.28
2022-07-31T02:21:10.581Z,17.43
2022-07-31T02:23:38.221Z,17.38
2022-07-31T02:26:05.817Z,17.23
2022-07-31T02:28:38.521Z,17.39
2022-07-31T02:31:10.964Z,16.98
2022-07-31T02:33:39.643Z,17.10
2022-07-31T02:36:07.058Z,17.27
2022-07-31T02:38:35.649Z,17.21
2022-07-31T02:41:03.868Z,17.13
2022-07-31T02:43:32.901Z,17.35
2022-07-31T02:46:00.412Z,17.32
2022-07-31T02:48:27.701Z,17.21
2022-07-31T02:50:55.321Z,17.30
2022-07-31T02:53:22.284Z,17.32
2022-07-31T02:55:50.682Z,17.53
2022-07-31T02:58:17.422Z,17.31
2022-07-31T03:00:44.195Z,17.19
2022-07-31T03:03:11.042Z,16.98
2022-07-31T03:05:37.665Z,16.81
2022-07-31T03:08:04.557Z,16.99
2022-07-31T03:10:31.241Z,16.86
2022-07-31T03:12:58.863Z,16.96
2022-07-31T03:15:27.109Z,16.94
2022-07-31T03:17:54.829Z,16.90
2022-07-31T03:20:22.558Z,16.85
2022-07-31T03:22:49.973Z,16.83
2022-07-31T03:25:21.512Z,16.73
2022-07-31T03:27:52.396Z,16.80
2022-07-31T03:30:22.765Z,16.98
2022-07-31T03:32:49.400Z,16.84
2022-07-31T03:35:16.022Z,16.96
2022-07-31T03:37:42.711Z,17.11
2022-07-31T03:40:10.276Z,17.04
2022-07-31T03:42:37.041Z,17.15
2022-07-31T03:45:06.400Z,17.00
2022-07-31T03:47:33.304Z,16.94
2022-07-31T03:50:01.219Z,16.73
2022-07-31T03:52:29.559Z,16.87
2022-07-31T03:54:56.483Z,16.88
2022-07-31T03:57:28.753Z,16.92
2022-07-31T03:59:59.322Z,16.84
2022-07-31T04:02:27.914Z,16.87
2022-07-31T04:04:55.481Z,17.13
2022-07-31T04:07:22.148Z,16.91
2022-07-31T04:09:48.970Z,16.95
2022-07-31T04:12:15.728Z,16.91
2022-07-31T04:14:42.489Z,16.76
2022-07-31T04:17:09.250Z,16.69
2022-07-31T04:19:36.175Z,16.75
2022-07-31T04:22:03.578Z,16.75
2022-07-31T04:24:30.495Z,16.76
2022-07-31T04:26:58.068Z,16.70
2022-07-31T04:36:30.612Z,16.95
2022-07-31T04:38:58.887Z,17.17
2022-07-31T04:41:25.712Z,16.92
2022-07-31T04:43:52.356Z,16.89
2022-07-31T04:46:19.149Z,16.89
2022-07-31T04:48:45.858Z,16.82
2022-07-31T04:51:20.006Z,16.81
2022-07-31T04:53:48.510Z,16.88
2022-07-31T04:56:15.125Z,16.75
2022-07-31T04:58:41.734Z,16.88
2022-07-31T05:01:08.405Z,16.74
2022-07-31T05:03:36.223Z,16.78
2022-07-31T05:06:12.990Z,16.69
2022-07-31T05:08:39.946Z,16.76
2022-07-31T05:11:07.373Z,16.59
2022-07-31T05:13:34.009Z,16.71
2022-07-31T05:16:00.625Z,16.60
2022-07-31T05:18:27.371Z,16.69
2022-07-31T05:20:54.004Z,16.48
2022-07-31T05:23:20.803Z,16.53
2022-07-31T05:25:48.672Z,16.69
2022-07-31T05:28:15.289Z,16.80
2022-07-31T05:30:43.568Z,16.37
2022-07-31T05:33:10.201Z,16.24
2022-07-31T05:35:38.073Z,15.79
2022-07-31T05:38:04.725Z,15.70
2022-07-31T05:40:38.560Z,15.59
2022-07-31T05:43:05.230Z,15.45
2022-07-31T05:45:31.978Z,15.19
2022-07-31T05:47:58.614Z,15.23
2022-07-31T05:50:26.486Z,15.12
2022-07-31T05:52:53.133Z,15.00
2022-07-31T05:55:19.872Z,15.09
2022-07-31T05:57:46.817Z,15.04
2022-07-31T06:00:14.194Z,15.23
2022-07-31T06:02:41.241Z,15.33
2022-07-31T06:05:08.442Z,15.10
2022-07-31T06:07:35.064Z,15.14
2022-07-31T06:10:03.257Z,15.10
2022-07-31T06:12:29.882Z,15.18
2022-07-31T06:14:56.717Z,15.07
2022-07-31T06:17:23.478Z,14.98
2022-07-31T06:20:07.962Z,14.93
2022-07-31T06:22:34.635Z,15.05
2022-07-31T06:25:01.521Z,14.98
2022-07-31T06:27:33.564Z,15.03
2022-07-31T06:30:02.007Z,14.98
2022-07-31T06:32:28.722Z,15.17
2022-07-31T06:34:55.455Z,15.14
2022-07-31T06:37:22.254Z,15.03
2022-07-31T06:39:56.029Z,15.13
2022-07-31T06:42:24.612Z,15.33
2022-07-31T06:44:52.362Z,15.35
2022-07-31T06:47:22.845Z,15.34
2022-07-31T06:49:49.823Z,15.42
2022-07-31T06:52:17.027Z,15.56
2022-07-31T06:54:44.050Z,15.70
2022-07-31T06:57:11.629Z,15.48
2022-07-31T06:59:39.792Z,15.55
2022-07-31T07:02:08.187Z,15.55
2022-07-31T07:05:00.028Z,15.44
2022-07-31T07:07:26.889Z,15.48
2022-07-31T07:09:58.908Z,15.63
2022-07-31T07:12:26.930Z,15.51
2022-07-31T07:14:55.196Z,15.61
2022-07-31T07:17:24.800Z,15.87
2022-07-31T07:19:54.743Z,15.89
2022-07-31T07:22:30.057Z,15.78
2022-07-31T07:24:59.661Z,15.87
2022-07-31T07:27:26.495Z,15.90
2022-07-31T07:29:53.235Z,15.79
2022-07-31T07:32:19.855Z,15.90
2022-07-31T07:34:46.513Z,15.97
2022-07-31T07:37:13.166Z,15.96
2022-07-31T07:39:39.806Z,15.92
2022-07-31T07:42:06.794Z,15.94
2022-07-31T07:44:33.703Z,16.16
2022-07-31T07:47:00.320Z,16.22
2022-07-31T07:49:27.075Z,16.37
2022-07-31T07:51:58.743Z,16.71
2022-07-31T07:54:27.253Z,16.51
2022-07-31T07:56:53.889Z,16.39
2022-07-31T07:59:20.612Z,16.49
2022-07-31T08:01:47.384Z,16.51
2022-07-31T08:04:14.048Z,16.52
2022-07-31T08:06:43.870Z,16.69
2022-07-31T08:09:10.600Z,16.74
2022-07-31T08:11:37.218Z,16.88
2022-07-31T08:14:03.865Z,16.72
2022-07-31T08:16:30.718Z,16.65
2022-07-31T08:18:57.388Z,16.65
2022-07-31T08:21:25.360Z,16.57
2022-07-31T08:23:51.992Z,16.90
2022-07-31T08:26:18.855Z,16.75
2022-07-31T08:28:49.800Z,16.93
2022-07-31T08:31:20.673Z,16.85
2022-07-31T08:33:47.322Z,16.99
2022-07-31T08:36:13.960Z,17.02
2022-07-31T08:38:40.561Z,16.92
2022-07-31T08:41:07.215Z,17.10
2022-07-31T08:44:02.990Z,17.04
2022-07-31T08:46:22.317Z,17.25
2022-07-31T08:48:51.370Z,17.35
2022-07-31T08:51:18.710Z,17.63
2022-07-31T08:53:46.560Z,17.74
2022-07-31T08:56:13.574Z,17.87
2022-07-31T08:58:40.270Z,17.85
2022-07-31T09:01:08.838Z,17.64
2022-07-31T09:03:35.790Z,17.66
2022-07-31T09:06:02.582Z,17.51
2022-07-31T09:08:35.673Z,17.25
2022-07-31T09:11:06.993Z,17.39
2022-07-31T09:13:34.126Z,17.48
2022-07-31T09:16:02.021Z,17.62
2022-07-31T09:18:29.995Z,17.83
2022-07-31T09:21:05.776Z,18.22
2022-07-31T09:23:33.300Z,18.09
2022-07-31T09:26:03.321Z,17.60
2022-07-31T09:28:32.952Z,17.71
2022-07-31T09:30:59.851Z,18.06
2022-07-31T09:33:28.329Z,18.05
2022-07-31T09:35:55.482Z,17.91
2022-07-31T09:38:22.132Z,18.07
2022-07-31T09:40:55.463Z,18.56
2022-07-31T09:43:24.482Z,18.49
2022-07-31T09:45:58.814Z,18.09
2022-07-31T09:48:26.742Z,18.53
2022-07-31T09:51:05.038Z,18.82
2022-07-31T09:53:43.566Z,18.68
2022-07-31T09:56:10.491Z,18.79
2022-07-31T09:58:37.123Z,18.91
2022-07-31T10:01:03.875Z,18.33
2022-07-31T10:03:30.924Z,18.27
2022-07-31T10:05:58.881Z,18.53
2022-07-31T10:08:29.121Z,18.33
2022-07-31T10:10:55.865Z,18.24
2022-07-31T10:13:23.554Z,18.26
2022-07-31T10:15:53.659Z,18.29
2022-07-31T10:18:36.166Z,18.16
2022-07-31T10:21:05.912Z,18.27
2022-07-31T10:23:34.723Z,18.11
2022-07-31T10:26:03.562Z,18.27
2022-07-31T10:28:30.384Z,18.19
2022-07-31T10:30:58.011Z,18.27
2022-07-31T10:36:25.620Z,18.00
2022-07-31T10:39:00.784Z,17.93
2022-07-31T10:41:36.600Z,18.02
2022-07-31T10:44:13.822Z,17.86
2022-07-31T10:46:40.472Z,17.89
2022-07-31T10:49:08.724Z,17.53
2022-07-31T10:51:51.867Z,17.76
2022-07-31T10:54:18.501Z,18.11
2022-07-31T10:56:46.753Z,18.26
2022-07-31T10:59:13.522Z,18.45
2022-07-31T11:01:52.570Z,19.27
2022-07-31T11:04:32.593Z,19.39
2022-07-31T11:07:00.503Z,18.93
2022-07-31T11:09:28.981Z,18.86
2022-07-31T11:11:55.990Z,18.91
2022-07-31T11:14:33.529Z,18.62
2022-07-31T11:17:00.170Z,18.63
2022-07-31T11:19:41.362Z,18.43
2022-07-31T11:22:32.145Z,18.43
2022-07-31T11:25:00.880Z,18.42
2022-07-31T11:27:32.073Z,18.57
2022-07-31T11:30:13.067Z,18.60
2022-07-31T11:32:41.772Z,18.56
2022-07-31T11:35:08.808Z,18.67
2022-07-31T11:37:56.489Z,18.75
2022-07-31T11:40:27.826Z,18.91
2022-07-31T11:43:23.263Z,19.00
2022-07-31T11:45:53.294Z,18.89
2022-07-31T11:48:26.533Z,18.74
2022-07-31T11:50:54.331Z,18.55
2022-07-31T11:53:20.951Z,18.74
2022-07-31T11:55:55.917Z,18.76
2022-07-31T11:58:24.875Z,18.83
2022-07-31T12:00:57.463Z,18.83
2022-07-31T12:03:38.385Z,18.62
2022-07-31T12:06:07.776Z,18.36
2022-07-31T12:08:34.989Z,18.30
2022-07-31T12:11:04.962Z,18.53
2022-07-31T12:13:31.863Z,18.74
2022-07-31T12:16:02.120Z,18.52
2022-07-31T12:18:30.477Z,18.48
2022-07-31T12:20:58.604Z,18.50
2022-07-31T12:23:41.010Z,18.76
2022-07-31T12:26:11.262Z,18.50
2022-07-31T12:28:37.890Z,18.22
2022-07-31T12:31:04.610Z,18.49
2022-07-31T12:33:42.212Z,19.07
2022-07-31T12:36:13.820Z,18.78
2022-07-31T12:38:45.127Z,18.75
2022-07-31T12:41:15.530Z,18.85
2022-07-31T12:43:51.906Z,18.17
2022-07-31T12:46:34.861Z,18.05
2022-07-31T12:49:01.629Z,17.77
2022-07-31T12:51:46.200Z,17.91
2022-07-31T12:54:15.976Z,17.78
2022-07-31T12:56:43.462Z,17.60
2022-07-31T12:59:11.047Z,17.53
2022-07-31T13:01:38.269Z,17.71
2022-07-31T13:04:05.958Z,17.59
2022-07-31T13:06:35.397Z,17.65
2022-07-31T13:09:02.001Z,17.55
2022-07-31T13:11:28.632Z,17.85
2022-07-31T13:13:55.336Z,17.89
2022-07-31T13:16:21.971Z,17.71
2022-07-31T13:18:48.603Z,17.72
2022-07-31T13:21:15.257Z,17.48
2022-07-31T13:23:41.876Z,17.57
2022-07-31T13:26:08.508Z,17.42
2022-07-31T13:28:35.184Z,17.60
2022-07-31T13:31:01.902Z,17.69
2022-07-31T13:33:28.548Z,17.81
2022-07-31T13:35:55.250Z,17.79
2022-07-31T13:38:21.890Z,17.74
2022-07-31T13:40:48.506Z,17.93
2022-07-31T13:43:15.169Z,18.02
2022-07-31T13:45:41.810Z,17.68
2022-07-31T13:48:09.918Z,17.76
2022-07-31T13:50:38.630Z,17.83
2022-07-31T13:53:05.420Z,17.74
2022-07-31T13:55:32.171Z,17.71
2022-07-31T13:58:01.099Z,17.84
2022-07-31T14:00:28.622Z,17.86
2022-07-31T14:02:55.328Z,17.78
2022-07-31T14:05:23.940Z,17.86
2022-07-31T14:07:53.345Z,17.81
2022-07-31T14:10:22.069Z,17.83
2022-07-31T14:12:49.254Z,17.80
2022-07-31T14:15:15.942Z,17.68
2022-07-31T14:17:42.570Z,17.93
2022-07-31T14:20:09.639Z,18.07
2022-07-31T14:22:36.350Z,18.05
2022-07-31T14:25:03.646Z,18.14
2022-07-31T14:27:30.539Z,17.87
2022-07-31T14:29:57.186Z,17.79
2022-07-31T14:32:23.810Z,17.80
2022-07-31T14:34:50.663Z,17.73
2022-07-31T14:37:17.886Z,17.82
2022-07-31T14:39:44.545Z,17.78
2022-07-31T14:42:11.706Z,17.36
2022-07-31T14:44:39.679Z,17.24
2022-07-31T14:47:06.714Z,16.94
2022-07-31T14:50:08.977Z,17.12
2022-07-31T14:52:20.279Z,16.63
2022-07-31T14:54:46.920Z,16.68
2022-07-31T14:57:13.958Z,16.33
2022-07-31T14:59:50.360Z,16.29
2022-07-31T15:02:22.293Z,16.26
2022-07-31T15:04:50.285Z,16.44
2022-07-31T15:10:07.082Z,16.07
2022-07-31T15:12:34.015Z,16.21
2022-07-31T15:15:00.686Z,16.28
2022-07-31T15:17:27.370Z,16.23
2022-07-31T15:19:54.185Z,16.16
2022-07-31T15:22:20.949Z,16.29
2022-07-31T15:24:49.607Z,16.16
2022-07-31T15:27:20.327Z,16.29
2022-07-31T15:30:03.931Z,16.18
2022-07-31T15:32:37.604Z,16.31
2022-07-31T15:35:06.305Z,16.21
2022-07-31T15:37:40.790Z,16.46
2022-07-31T15:40:10.581Z,16.69
2022-07-31T15:42:39.509Z,16.56
2022-07-31T15:45:08.594Z,16.49
2022-07-31T15:47:35.355Z,16.57
2022-07-31T15:50:02.078Z,16.52
2022-07-31T15:52:29.072Z,16.89
2022-07-31T15:54:55.739Z,16.75
2022-07-31T15:57:23.878Z,16.89
2022-07-31T15:59:51.622Z,17.11
2022-07-31T16:02:18.313Z,17.30
2022-07-31T16:04:52.851Z,17.13
2022-07-31T16:08:30.191Z,16.99
2022-07-31T16:10:15.508Z,17.07
2022-07-31T16:12:47.114Z,17.10
2022-07-31T16:15:14.307Z,17.08
2022-07-31T16:17:41.721Z,16.82
2022-07-31T16:20:11.650Z,16.79
2022-07-31T16:22:40.880Z,16.89
2022-07-31T16:25:08.712Z,16.85
2022-07-31T16:27:35.969Z,16.75
2022-07-31T16:30:04.054Z,16.87
2022-07-31T16:32:30.934Z,16.73
2022-07-31T16:35:01.054Z,16.90
2022-07-31T16:37:50.953Z,16.90
2022-07-31T16:40:28.583Z,17.03
2022-07-31T16:43:50.125Z,17.07
2022-07-31T16:45:49.466Z,16.93
2022-07-31T16:48:16.148Z,17.16
2022-07-31T16:50:42.849Z,17.06
2022-07-31T16:53:09.504Z,16.81
2022-07-31T16:55:51.682Z,16.89
2022-07-31T16:58:27.178Z,16.88
2022-07-31T17:00:53.974Z,16.92
2022-07-31T17:03:58.361Z,16.89
2022-07-31T17:06:07.315Z,16.85
2022-07-31T17:08:33.977Z,16.89
2022-07-31T17:11:00.604Z,17.07
2022-07-31T17:13:27.246Z,17.06
2022-07-31T17:15:53.956Z,17.03
2022-07-31T17:18:20.609Z,17.10
2022-07-31T17:20:47.320Z,17.13
2022-07-31T17:23:14.471Z,16.96
2022-07-31T17:25:42.606Z,17.03
2022-07-31T17:28:14.680Z,17.02
2022-07-31T17:30:42.186Z,17.26
2022-07-31T17:33:08.897Z,17.19
2022-07-31T17:35:35.544Z,16.97
2022-07-31T17:38:02.240Z,17.09
2022-07-31T17:40:43.094Z,16.96
2022-07-31T17:43:10.630Z,16.95
2022-07-31T17:45:59.674Z,16.94
2022-07-31T17:48:23.961Z,16.85
2022-07-31T17:50:54.102Z,16.91
2022-07-31T17:53:21.066Z,16.85
2022-07-31T17:55:47.851Z,16.96
2022-07-31T17:58:14.485Z,17.05
2022-07-31T18:00:41.127Z,16.91
2022-07-31T18:03:07.930Z,17.11
2022-07-31T18:05:34.724Z,17.17
2022-07-31T18:08:01.350Z,16.94
2022-07-31T18:10:52.982Z,17.42
2022-07-31T18:13:14.637Z,17.07
2022-07-31T18:15:41.264Z,16.99
2022-07-31T18:18:07.897Z,16.84
2022-07-31T18:20:34.766Z,16.91
2022-07-31T18:23:01.470Z,16.84
2022-07-31T18:25:28.086Z,16.98
2022-07-31T18:27:54.748Z,17.01
2022-07-31T18:30:21.352Z,17.04
2022-07-31T18:32:47.970Z,17.13
2022-07-31T18:35:14.711Z,17.14
2022-07-31T18:37:41.353Z,16.95
2022-07-31T18:40:08.681Z,17.07
2022-07-31T18:42:35.299Z,16.96
2022-07-31T18:45:01.953Z,16.78
2022-07-31T18:47:28.606Z,16.82
2022-07-31T18:51:01.941Z,16.69
2022-07-31T18:52:41.820Z,16.62
2022-07-31T18:55:08.866Z,16.71
2022-07-31T18:57:35.581Z,16.45
2022-07-31T19:00:02.593Z,16.51
2022-07-31T19:02:29.344Z,16.54
2022-07-31T19:04:56.062Z,16.56
2022-07-31T19:07:22.700Z,16.71
2022-07-31T19:09:49.340Z,16.77
2022-07-31T19:12:16.107Z,16.83
2022-07-31T19:14:43.017Z,16.62
2022-07-31T19:17:09.692Z,16.51
2022-07-31T19:19:54.357Z,16.48
2022-07-31T19:22:22.563Z,16.74
2022-07-31T19:24:49.386Z,16.74
2022-07-31T19:27:16.091Z,16.70
2022-07-31T19:29:42.836Z,16.46
2022-07-31T19:32:09.577Z,16.53
2022-07-31T19:34:36.253Z,16.98
2022-07-31T19:37:03.047Z,17.02
2022-07-31T19:39:30.465Z,17.15
2022-07-31T19:42:11.860Z,16.95
2022-07-31T19:44:39.632Z,17.02
2022-07-31T19:47:06.358Z,16.80
2022-07-31T19:49:37.831Z,16.70
2022-07-31T19:52:05.894Z,16.55
2022-07-31T19:54:32.867Z,16.70
2022-07-31T19:56:59.489Z,16.65
2022-07-31T19:59:26.133Z,16.75
2022-07-31T20:01:52.760Z,16.67
2022-07-31T20:04:19.383Z,16.79
2022-07-31T20:06:46.131Z,16.98
2022-07-31T20:09:12.849Z,17.09
2022-07-31T20:11:39.476Z,16.85
2022-07-31T20:14:06.103Z,16.79
2022-07-31T20:16:32.759Z,16.69
2022-07-31T20:18:59.719Z,16.81
2022-07-31T20:21:26.994Z,16.83
2022-07-31T20:24:01.717Z,16.98
2022-07-31T20:26:28.325Z,17.08
2022-07-31T20:28:55.472Z,17.01
2022-07-31T20:31:22.249Z,17.05
2022-07-31T20:33:57.462Z,17.28
2022-07-31T20:36:26.325Z,17.00
2022-07-31T20:38:53.295Z,16.95
2022-07-31T20:41:19.980Z,16.97
2022-07-31T20:43:46.669Z,17.29
2022-07-31T20:46:13.311Z,17.12
2022-07-31T20:48:39.954Z,16.83
2022-07-31T20:51:06.707Z,16.89
2022-07-31T20:53:33.364Z,16.83
2022-07-31T20:56:00.133Z,16.70
2022-07-31T20:58:27.034Z,16.78
2022-07-31T21:00:53.887Z,16.92
2022-07-31T21:03:21.573Z,16.72
2022-07-31T21:05:48.707Z,16.96
2022-07-31T21:08:16.602Z,17.25
2022-07-31T21:10:43.936Z,17.55
2022-07-31T21:13:10.673Z,17.61
2022-07-31T21:15:41.594Z,17.36
2022-07-31T21:18:18.648Z,17.13
2022-07-31T21:20:51.614Z,17.80
2022-07-31T21:23:26.739Z,17.43
2022-07-31T21:25:55.799Z,17.71
2022-07-31T21:28:25.044Z,17.74
2022-07-31T21:30:52.054Z,17.90
2022-07-31T21:33:18.793Z,17.55
2022-07-31T21:35:46.434Z,17.43
2022-07-31T21:38:13.279Z,17.33
2022-07-31T21:40:40.534Z,17.57
2022-07-31T21:43:08.802Z,17.31
2022-07-31T21:45:50.290Z,17.20
2022-07-31T21:48:24.383Z,17.19
2022-07-31T21:50:51.496Z,16.99
2022-07-31T21:53:18.259Z,17.53
2022-07-31T21:55:44.942Z,17.79
2022-07-31T21:58:11.681Z,17.64
2022-07-31T22:00:38.401Z,17.56
2022-07-31T22:03:06.146Z,17.68
2022-07-31T22:05:33.437Z,17.14
2022-07-31T22:08:00.077Z,17.17
2022-07-31T22:10:31.638Z,17.05
2022-07-31T22:12:59.351Z,16.90
2022-07-31T22:15:26.111Z,17.31
2022-07-31T22:18:12.926Z,17.89
2022-07-31T22:20:39.999Z,17.97
2022-07-31T22:23:06.823Z,17.94
2022-07-31T22:25:33.768Z,17.65
2022-07-31T22:28:02.889Z,16.60
2022-07-31T22:30:29.831Z,16.51
2022-07-31T22:32:59.041Z,16.98
2022-07-31T22:35:27.055Z,17.27
2022-07-31T22:37:54.540Z,16.93
2022-07-31T22:40:23.370Z,16.91
2022-07-31T22:42:56.052Z,16.22
2022-07-31T22:45:24.401Z,16.09
2022-07-31T22:47:51.277Z,16.33
2022-07-31T22:50:18.030Z,16.70
2022-07-31T22:52:44.673Z,16.93
2022-07-31T22:55:12.147Z,16.96
2022-07-31T22:57:38.975Z,16.82
2022-07-31T23:00:07.445Z,16.30
2022-07-31T23:02:34.224Z,16.50
2022-07-31T23:05:00.855Z,16.43
2022-07-31T23:07:27.525Z,16.57
2022-07-31T23:09:54.295Z,16.56
2022-07-31T23:12:20.933Z,16.52
2022-07-31T23:14:47.557Z,16.52
2022-07-31T23:17:23.282Z,16.48
2022-07-31T23:19:53.621Z,16.69
2022-07-31T23:22:33.358Z,16.32
2022-07-31T23:25:02.411Z,16.10
2022-07-31T23:27:29.055Z,16.07
2022-07-31T23:29:55.688Z,15.79
2022-07-31T23:32:22.286Z,15.84
2022-07-31T23:34:48.978Z,15.93
2022-07-31T23:37:15.669Z,15.95
2022-07-31T23:39:42.301Z,16.09
2022-07-31T23:42:09.059Z,16.29
2022-07-31T23:44:40.078Z,16.40
2022-07-31T23:47:09.255Z,16.45
2022-07-31T23:49:36.014Z,16.50
2022-07-31T23:52:02.955Z,16.42
2022-07-31T23:54:29.730Z,16.47
2022-07-31T23:56:56.357Z,16.49
2022-07-31T23:59:23.031Z,16.37
